createdAt,value
2023-01-22T00:03:24.666Z,10.59
2023-01-22T00:08:31.370Z,10.61
2023-01-22T00:13:40.753Z,10.61
2023-01-22T00:18:52.251Z,10.68
2023-01-22T00:24:05.579Z,10.62
2023-01-22T00:29:16.594Z,10.45
2023-01-22T00:34:37.907Z,10.58
2023-01-22T00:39:44.209Z,10.61
2023-01-22T00:44:57.321Z,10.61
2023-01-22T00:50:13.576Z,10.59
2023-01-22T00:55:35.833Z,10.63
2023-01-22T01:00:48.179Z,10.59
2023-01-22T01:06:06.300Z,10.66
2023-01-22T01:11:24.578Z,10.76
2023-01-22T01:16:42.915Z,10.75
2023-01-22T01:21:55.209Z,10.88
2023-01-22T01:27:05.324Z,10.91
2023-01-22T01:32:20.492Z,10.91
2023-01-22T01:37:27.680Z,10.91
2023-01-22T01:42:37.920Z,10.82
2023-01-22T01:47:44.140Z,10.72
2023-01-22T01:52:51.336Z,10.74
2023-01-22T01:57:58.702Z,10.69
2023-01-22T02:03:11.136Z,10.70
2023-01-22T02:08:24.971Z,10.70
2023-01-22T02:13:36.210Z,10.76
2023-01-22T02:18:46.418Z,10.75
2023-01-22T02:23:59.645Z,10.71
2023-01-22T02:29:08.836Z,10.66
2023-01-22T02:34:19.382Z,10.62
2023-01-22T02:39:43.148Z,10.35
2023-01-22T02:44:57.151Z,10.27
2023-01-22T02:50:04.745Z,10.23
2023-01-22T02:55:21.978Z,10.25
2023-01-22T03:00:34.323Z,10.20
2023-01-22T03:05:43.463Z,10.11
2023-01-22T03:10:54.820Z,10.18
2023-01-22T03:16:19.009Z,10.20
2023-01-22T03:21:27.209Z,10.26
2023-01-22T03:26:37.447Z,10.26
2023-01-22T03:31:49.760Z,10.21
2023-01-22T03:37:17.932Z,10.18
2023-01-22T03:42:31.798Z,10.26
2023-01-22T03:47:36.377Z,10.21
2023-01-22T03:52:45.576Z,10.24
2023-01-22T03:57:54.692Z,10.12
2023-01-22T04:02:58.954Z,10.07
2023-01-22T04:08:08.053Z,10.04
2023-01-22T04:13:15.414Z,9.99
2023-01-22T04:18:21.643Z,9.95
2023-01-22T04:23:29.845Z,9.84
2023-01-22T04:28:37.001Z,9.79
2023-01-22T04:33:44.213Z,9.79
2023-01-22T04:38:50.392Z,9.79
2023-01-22T04:44:00.646Z,9.72
2023-01-22T04:49:05.824Z,9.67
2023-01-22T04:54:10.050Z,9.59
2023-01-22T04:59:21.302Z,9.56
2023-01-22T05:04:27.264Z,9.48
2023-01-22T05:09:33.687Z,9.46
2023-01-22T05:14:42.779Z,9.32
2023-01-22T05:19:46.985Z,9.32
2023-01-22T05:24:53.175Z,9.26
2023-01-22T05:30:05.396Z,9.24
2023-01-22T05:35:10.621Z,9.22
2023-01-22T05:40:15.158Z,9.15
2023-01-22T05:45:22.977Z,9.02
2023-01-22T05:50:27.202Z,8.99
2023-01-22T05:55:32.367Z,9.01
2023-01-22T06:00:38.560Z,8.93
2023-01-22T06:05:42.785Z,8.91
2023-01-22T06:10:46.967Z,8.88
2023-01-22T06:15:58.217Z,8.84
2023-01-22T06:21:03.424Z,8.77
2023-01-22T06:26:08.582Z,8.68
2023-01-22T06:31:17.626Z,8.67
2023-01-22T06:36:21.970Z,8.65
2023-01-22T06:41:29.179Z,8.57
2023-01-22T06:46:40.425Z,8.54
2023-01-22T06:51:49.837Z,8.48
2023-01-22T06:56:56.689Z,8.49
2023-01-22T07:02:07.015Z,8.48
2023-01-22T07:07:11.272Z,8.45
2023-01-22T07:12:16.400Z,8.38
2023-01-22T07:17:23.579Z,8.23
2023-01-22T07:22:27.779Z,8.23
2023-01-22T07:27:32.967Z,8.22
2023-01-22T07:32:39.182Z,8.18
2023-01-22T07:37:43.362Z,8.11
2023-01-22T07:48:27.832Z,8.10
2023-01-22T07:53:32.075Z,8.07
2023-01-22T07:58:36.284Z,8.03
2023-01-22T08:03:50.513Z,7.98
2023-01-22T08:08:54.314Z,7.94
2023-01-22T08:13:59.029Z,7.85
2023-01-22T08:19:09.090Z,7.84
2023-01-22T08:24:14.394Z,7.88
2023-01-22T08:29:31.069Z,7.84
2023-01-22T08:34:43.024Z,7.90
2023-01-22T08:39:49.039Z,7.88
2023-01-22T08:44:53.116Z,7.85
2023-01-22T08:49:59.308Z,8.03
2023-01-22T08:55:21.413Z,8.22
2023-01-22T09:00:49.266Z,8.38
2023-01-22T09:12:56.288Z,8.47
2023-01-22T09:25:50.328Z,8.78
2023-01-22T09:31:30.114Z,8.83
2023-01-22T09:37:16.005Z,8.90
2023-01-22T10:08:09.570Z,9.53
2023-01-22T10:32:04.912Z,9.74
2023-01-22T11:54:09.104Z,10.24
2023-01-22T11:59:32.891Z,10.35
2023-01-22T12:05:06.218Z,10.29
2023-01-22T12:10:42.518Z,10.42
2023-01-22T12:16:05.571Z,10.56
2023-01-22T12:21:25.909Z,10.63
2023-01-22T12:26:46.613Z,10.72
2023-01-22T12:32:01.527Z,10.67
2023-01-22T12:37:08.672Z,10.78
2023-01-22T12:42:28.932Z,10.79
2023-01-22T12:47:43.161Z,10.95
2023-01-22T12:52:48.951Z,10.97
2023-01-22T12:58:01.914Z,11.00
2023-01-22T13:03:33.454Z,11.05
2023-01-22T13:08:42.152Z,11.21
2023-01-22T13:13:58.563Z,11.24
2023-01-22T13:19:22.577Z,11.26
2023-01-22T13:24:27.773Z,11.36
2023-01-22T13:29:34.952Z,11.49
2023-01-22T13:34:38.336Z,11.52
2023-01-22T13:39:41.604Z,11.69
2023-01-22T13:44:51.600Z,12.52
2023-01-22T13:49:55.407Z,13.85
2023-01-22T13:55:06.003Z,14.49
2023-01-22T14:00:29.378Z,14.94
2023-01-22T14:05:35.555Z,15.50
2023-01-22T14:10:41.781Z,15.38
2023-01-22T14:15:58.924Z,15.58
2023-01-22T14:21:03.126Z,15.22
2023-01-22T14:26:09.276Z,15.45
2023-01-22T14:31:27.583Z,15.32
2023-01-22T14:36:31.780Z,15.57
2023-01-22T14:41:35.215Z,15.80
2023-01-22T14:46:44.140Z,15.95
2023-01-22T14:51:48.445Z,16.79
2023-01-22T14:56:59.688Z,16.93
2023-01-22T15:02:06.808Z,16.55
2023-01-22T15:13:47.618Z,16.39
2023-01-22T15:42:41.185Z,16.15
2023-01-22T15:47:45.637Z,15.79
2023-01-22T15:52:53.829Z,15.91
2023-01-22T16:17:01.812Z,14.07
2023-01-22T16:28:13.115Z,13.99
2023-01-22T16:39:06.661Z,13.25
2023-01-22T16:44:22.562Z,12.89
2023-01-22T16:49:43.129Z,12.62
2023-01-22T16:55:01.696Z,12.98
2023-01-22T17:00:18.987Z,12.78
2023-01-22T17:05:22.431Z,12.45
2023-01-22T17:10:25.548Z,12.32
2023-01-22T17:15:30.537Z,12.15
2023-01-22T17:20:33.600Z,11.91
2023-01-22T17:25:40.717Z,11.78
2023-01-22T17:30:45.396Z,11.63
2023-01-22T17:35:48.953Z,11.49
2023-01-22T17:40:52.257Z,11.35
2023-01-22T17:45:56.908Z,11.04
2023-01-22T17:51:04.872Z,10.91
2023-01-22T17:56:10.389Z,10.81
2023-01-22T18:01:16.473Z,10.68
2023-01-22T18:06:20.581Z,10.50
2023-01-22T18:11:28.020Z,10.41
2023-01-22T18:16:36.489Z,10.37
2023-01-22T18:21:40.670Z,10.19
2023-01-22T18:26:44.165Z,10.06
2023-01-22T18:31:48.757Z,9.91
2023-01-22T18:36:51.996Z,9.81
2023-01-22T18:41:55.635Z,9.73
2023-01-22T18:47:01.888Z,9.60
2023-01-22T18:52:05.194Z,9.44
2023-01-22T18:57:08.364Z,9.37
2023-01-22T19:02:16.347Z,9.35
2023-01-22T19:07:19.553Z,9.29
2023-01-22T19:12:22.729Z,9.26
2023-01-22T19:17:27.372Z,9.08
2023-01-22T19:22:30.734Z,9.04
2023-01-22T19:27:34.551Z,8.96
2023-01-22T19:32:39.394Z,8.90
2023-01-22T19:37:42.663Z,8.93
2023-01-22T19:42:47.024Z,8.89
2023-01-22T19:47:51.675Z,8.90
2023-01-22T19:52:54.846Z,8.72
2023-01-22T19:57:58.233Z,8.69
2023-01-22T20:03:06.841Z,8.63
2023-01-22T20:08:11.239Z,8.47
2023-01-22T20:13:14.731Z,8.34
2023-01-22T20:18:19.801Z,8.23
2023-01-22T20:23:23.303Z,8.21
2023-01-22T20:28:26.556Z,8.09
2023-01-22T20:33:31.494Z,8.06
2023-01-22T20:38:35.603Z,7.90
2023-01-22T20:43:40.454Z,7.93
2023-01-22T20:48:46.033Z,7.82
2023-01-22T20:53:50.822Z,7.81
2023-01-22T20:58:57.426Z,7.87
2023-01-22T21:04:02.931Z,7.81
2023-01-22T21:09:07.752Z,7.85
2023-01-22T21:14:16.052Z,7.81
2023-01-22T21:19:23.795Z,7.72
2023-01-22T21:24:27.467Z,7.73
2023-01-22T21:29:30.665Z,7.62
2023-01-22T21:34:36.520Z,7.52
2023-01-22T21:39:45.125Z,7.62
2023-01-22T21:45:05.891Z,7.67
2023-01-22T21:50:12.083Z,7.57
2023-01-22T21:55:15.858Z,7.61
2023-01-22T22:00:20.389Z,7.60
2023-01-22T22:05:25.396Z,7.50
2023-01-22T22:10:28.658Z,7.41
2023-01-22T22:15:31.903Z,7.38
2023-01-22T22:20:37.589Z,7.35
2023-01-22T22:25:40.838Z,7.40
2023-01-22T22:30:44.105Z,7.25
2023-01-22T22:35:49.160Z,7.36
2023-01-22T22:41:03.881Z,7.39
2023-01-22T22:46:09.308Z,7.31
2023-01-22T22:51:15.930Z,7.22
2023-01-22T22:56:19.201Z,7.10
2023-01-22T23:01:25.215Z,6.89
2023-01-22T23:06:32.743Z,6.90
2023-01-22T23:11:36.731Z,7.04
2023-01-22T23:16:41.631Z,6.91
2023-01-22T23:21:46.703Z,6.75
2023-01-22T23:26:50.797Z,6.70
2023-01-22T23:31:54.308Z,6.50
2023-01-22T23:36:59.018Z,6.48
2023-01-22T23:42:02.162Z,6.46
2023-01-22T23:47:05.549Z,6.45
2023-01-22T23:52:10.211Z,6.37
2023-01-22T23:57:13.410Z,6.52
